sensor_id;sensor_type;location;lat;lon;timestamp;pressure;altitude;pressure_sealevel;temperature;humidity
5138;BME280;53959;53.626;11.410;2023-04-01T00:00:27;99096.19;;;9.28;86.52
5138;BME280;53959;53.626;11.410;2023-04-01T00:02:52;99092.09;;;9.21;87.00
5138;BME280;53959;53.626;11.410;2023-04-01T00:05:18;99089.38;;;9.22;86.81
5138;BME280;53959;53.626;11.410;2023-04-01T00:07:43;99094.38;;;9.29;86.67
5138;BME280;53959;53.626;11.410;2023-04-01T00:10:11;99089.81;;;9.32;86.66
5138;BME280;53959;53.626;11.410;2023-04-01T00:12:37;99087.47;;;9.26;86.90
5138;BME280;53959;53.626;11.410;2023-04-01T00:15:04;99092.63;;;9.29;86.93
5138;BME280;53959;53.626;11.410;2023-04-01T00:17:30;99087.25;;;9.31;86.89
5138;BME280;53959;53.626;11.410;2023-04-01T00:19:56;99088.31;;;9.27;86.80
5138;BME280;53959;53.626;11.410;2023-04-01T00:22:23;99090.03;;;9.28;86.94
5138;BME280;53959;53.626;11.410;2023-04-01T00:24:49;99094.75;;;9.21;87.04
5138;BME280;53959;53.626;11.410;2023-04-01T00:27:15;99093.75;;;9.23;87.13
5138;BME280;53959;53.626;11.410;2023-04-01T00:29:45;99089.19;;;9.27;86.83
5138;BME280;53959;53.626;11.410;2023-04-01T00:32:11;99092.75;;;9.26;86.95
5138;BME280;53959;53.626;11.410;2023-04-01T00:34:36;99086.06;;;9.17;87.08
5138;BME280;53959;53.626;11.410;2023-04-01T00:37:03;99081.56;;;9.19;87.20
5138;BME280;53959;53.626;11.410;2023-04-01T00:39:30;99090.09;;;9.26;87.20
5138;BME280;53959;53.626;11.410;2023-04-01T00:41:55;99096.41;;;9.23;87.12
5138;BME280;53959;53.626;11.410;2023-04-01T00:44:27;99096.19;;;9.28;87.38
5138;BME280;53959;53.626;11.410;2023-04-01T00:46:53;99098.31;;;9.20;87.24
5138;BME280;53959;53.626;11.410;2023-04-01T00:49:21;99090.47;;;9.18;87.05
5138;BME280;53959;53.626;11.410;2023-04-01T00:51:50;99098.41;;;9.18;87.31
5138;BME280;53959;53.626;11.410;2023-04-01T00:54:19;99101.19;;;9.15;87.41
5138;BME280;53959;53.626;11.410;2023-04-01T00:56:48;99092.84;;;9.04;87.50
5138;BME280;53959;53.626;11.410;2023-04-01T00:59:22;99090.25;;;9.03;87.76
5138;BME280;53959;53.626;11.410;2023-04-01T01:01:49;99096.78;;;8.95;87.63
5138;BME280;53959;53.626;11.410;2023-04-01T01:04:39;99093.06;;;8.99;87.42
5138;BME280;53959;53.626;11.410;2023-04-01T01:10:02;99098.16;;;8.84;87.85
5138;BME280;53959;53.626;11.410;2023-04-01T01:12:44;99096.41;;;8.84;87.76
5138;BME280;53959;53.626;11.410;2023-04-01T01:15:23;99093.75;;;8.84;87.80
5138;BME280;53959;53.626;11.410;2023-04-01T01:17:58;99093.66;;;8.86;87.83
5138;BME280;53959;53.626;11.410;2023-04-01T01:32:52;99099.81;;;8.86;88.06
5138;BME280;53959;53.626;11.410;2023-04-01T01:38:04;99102.59;;;8.83;88.36
5138;BME280;53959;53.626;11.410;2023-04-01T01:40:33;99096.72;;;8.56;87.97
5138;BME280;53959;53.626;11.410;2023-04-01T01:43:04;99113.88;;;8.46;88.22
5138;BME280;53959;53.626;11.410;2023-04-01T01:45:32;99107.19;;;8.37;87.70
5138;BME280;53959;53.626;11.410;2023-04-01T01:48:00;99105.66;;;8.32;87.66
5138;BME280;53959;53.626;11.410;2023-04-01T01:50:28;99109.50;;;8.23;87.96
5138;BME280;53959;53.626;11.410;2023-04-01T01:53:20;99113.72;;;8.07;87.91
5138;BME280;53959;53.626;11.410;2023-04-01T01:55:47;99113.84;;;8.03;87.64
5138;BME280;53959;53.626;11.410;2023-04-01T02:00:44;99122.44;;;7.87;88.00
5138;BME280;53959;53.626;11.410;2023-04-01T02:03:12;99126.56;;;7.94;87.92
5138;BME280;53959;53.626;11.410;2023-04-01T02:05:39;99120.47;;;7.92;87.67
5138;BME280;53959;53.626;11.410;2023-04-01T02:08:11;99124.03;;;7.91;88.04
5138;BME280;53959;53.626;11.410;2023-04-01T02:10:42;99127.88;;;7.82;87.83
5138;BME280;53959;53.626;11.410;2023-04-01T02:13:17;99129.44;;;7.88;87.84
5138;BME280;53959;53.626;11.410;2023-04-01T02:15:47;99124.09;;;7.89;87.72
5138;BME280;53959;53.626;11.410;2023-04-01T02:18:14;99124.94;;;7.90;87.63
5138;BME280;53959;53.626;11.410;2023-04-01T02:20:41;99127.00;;;7.83;87.69
5138;BME280;53959;53.626;11.410;2023-04-01T02:23:07;99131.53;;;7.79;87.74
5138;BME280;53959;53.626;11.410;2023-04-01T02:25:36;99130.81;;;7.74;87.47
5138;BME280;53959;53.626;11.410;2023-04-01T02:28:04;99134.59;;;7.69;87.97
5138;BME280;53959;53.626;11.410;2023-04-01T02:30:33;99137.81;;;7.53;87.87
5138;BME280;53959;53.626;11.410;2023-04-01T02:33:00;99140.56;;;7.50;87.91
5138;BME280;53959;53.626;11.410;2023-04-01T02:35:25;99144.13;;;7.49;87.82
5138;BME280;53959;53.626;11.410;2023-04-01T02:37:53;99151.47;;;7.41;87.81
5138;BME280;53959;53.626;11.410;2023-04-01T02:40:19;99144.59;;;7.37;87.74
5138;BME280;53959;53.626;11.410;2023-04-01T02:42:45;99163.19;;;7.34;87.60
5138;BME280;53959;53.626;11.410;2023-04-01T02:45:12;99158.00;;;7.31;87.83
5138;BME280;53959;53.626;11.410;2023-04-01T02:47:37;99157.31;;;7.26;87.72
5138;BME280;53959;53.626;11.410;2023-04-01T02:50:03;99167.88;;;7.26;87.32
5138;BME280;53959;53.626;11.410;2023-04-01T02:52:29;99165.56;;;7.17;87.30
5138;BME280;53959;53.626;11.410;2023-04-01T02:54:58;99167.56;;;7.10;87.11
5138;BME280;53959;53.626;11.410;2023-04-01T02:57:24;99176.56;;;7.04;87.04
5138;BME280;53959;53.626;11.410;2023-04-01T02:59:50;99176.59;;;7.03;86.97
5138;BME280;53959;53.626;11.410;2023-04-01T03:02:16;99182.00;;;7.00;86.90
5138;BME280;53959;53.626;11.410;2023-04-01T03:04:42;99181.25;;;6.96;86.80
5138;BME280;53959;53.626;11.410;2023-04-01T03:07:08;99194.75;;;6.87;86.96
5138;BME280;53959;53.626;11.410;2023-04-01T03:09:36;99186.91;;;6.86;87.24
5138;BME280;53959;53.626;11.410;2023-04-01T03:12:01;99188.88;;;6.79;87.31
5138;BME280;53959;53.626;11.410;2023-04-01T03:14:27;99189.81;;;6.76;87.30
5138;BME280;53959;53.626;11.410;2023-04-01T03:16:52;99200.03;;;6.61;87.31
5138;BME280;53959;53.626;11.410;2023-04-01T03:19:18;99202.78;;;6.57;87.21
5138;BME280;53959;53.626;11.410;2023-04-01T03:21:44;99198.81;;;6.44;87.17
5138;BME280;53959;53.626;11.410;2023-04-01T03:24:09;99200.28;;;6.53;87.04
5138;BME280;53959;53.626;11.410;2023-04-01T03:26:35;99203.03;;;6.50;87.18
5138;BME280;53959;53.626;11.410;2023-04-01T03:29:00;99207.75;;;6.40;87.04
5138;BME280;53959;53.626;11.410;2023-04-01T03:31:26;99208.78;;;6.35;87.32
5138;BME280;53959;53.626;11.410;2023-04-01T03:33:54;99209.13;;;6.24;86.78
5138;BME280;53959;53.626;11.410;2023-04-01T03:36:21;99209.41;;;6.15;86.82
5138;BME280;53959;53.626;11.410;2023-04-01T03:38:46;99207.78;;;6.11;86.53
5138;BME280;53959;53.626;11.410;2023-04-01T03:41:17;99212.22;;;6.10;86.69
5138;BME280;53959;53.626;11.410;2023-04-01T03:43:43;99215.63;;;6.14;86.77
5138;BME280;53959;53.626;11.410;2023-04-01T03:46:09;99218.34;;;6.11;86.82
5138;BME280;53959;53.626;11.410;2023-04-01T03:48:34;99217.59;;;6.05;87.04
5138;BME280;53959;53.626;11.410;2023-04-01T03:51:00;99228.03;;;6.08;86.93
5138;BME280;53959;53.626;11.410;2023-04-01T03:53:26;99228.34;;;5.99;86.96
5138;BME280;53959;53.626;11.410;2023-04-01T03:55:55;99230.06;;;6.00;87.17
5138;BME280;53959;53.626;11.410;2023-04-01T03:58:20;99232.75;;;5.99;87.44
5138;BME280;53959;53.626;11.410;2023-04-01T04:00:46;99246.97;;;5.92;87.45
5138;BME280;53959;53.626;11.410;2023-04-01T04:03:11;99251.72;;;5.79;86.99
5138;BME280;53959;53.626;11.410;2023-04-01T04:05:37;99242.09;;;5.79;87.01
5138;BME280;53959;53.626;11.410;2023-04-01T04:08:03;99240.47;;;5.74;86.90
5138;BME280;53959;53.626;11.410;2023-04-01T04:10:30;99246.81;;;5.67;86.83
5138;BME280;53959;53.626;11.410;2023-04-01T04:12:55;99245.00;;;5.69;86.87
5138;BME280;53959;53.626;11.410;2023-04-01T04:15:23;99259.19;;;5.65;86.88
5138;BME280;53959;53.626;11.410;2023-04-01T04:17:48;99254.81;;;5.64;86.63
5138;BME280;53959;53.626;11.410;2023-04-01T04:20:14;99261.06;;;5.59;86.35
5138;BME280;53959;53.626;11.410;2023-04-01T04:22:40;99259.34;;;5.58;86.31
5138;BME280;53959;53.626;11.410;2023-04-01T04:25:08;99261.25;;;5.53;86.24
5138;BME280;53959;53.626;11.410;2023-04-01T04:27:34;99271.59;;;5.59;86.14
5138;BME280;53959;53.626;11.410;2023-04-01T04:30:06;99269.88;;;5.58;86.40
5138;BME280;53959;53.626;11.410;2023-04-01T04:32:33;99278.94;;;5.48;86.26
5138;BME280;53959;53.626;11.410;2023-04-01T04:34:58;99283.25;;;5.51;86.65
5138;BME280;53959;53.626;11.410;2023-04-01T04:37:24;99280.69;;;5.48;86.31
5138;BME280;53959;53.626;11.410;2023-04-01T04:39:51;99287.59;;;5.53;86.53
5138;BME280;53959;53.626;11.410;2023-04-01T04:42:16;99286.03;;;5.46;86.65
5138;BME280;53959;53.626;11.410;2023-04-01T04:44:43;99295.50;;;5.53;86.50
5138;BME280;53959;53.626;11.410;2023-04-01T04:47:08;99292.16;;;5.47;86.39
5138;BME280;53959;53.626;11.410;2023-04-01T04:49:35;99293.88;;;5.48;86.47
5138;BME280;53959;53.626;11.410;2023-04-01T04:52:05;99297.56;;;5.41;86.45
5138;BME280;53959;53.626;11.410;2023-04-01T04:54:30;99295.91;;;5.38;86.52
5138;BME280;53959;53.626;11.410;2023-04-01T04:56:58;99294.16;;;5.37;86.43
5138;BME280;53959;53.626;11.410;2023-04-01T04:59:25;99298.63;;;5.33;86.44
5138;BME280;53959;53.626;11.410;2023-04-01T05:02:26;99308.56;;;5.24;86.35
5138;BME280;53959;53.626;11.410;2023-04-01T05:04:51;99299.88;;;5.19;86.50
5138;BME280;53959;53.626;11.410;2023-04-01T05:07:17;99311.41;;;5.15;86.85
5138;BME280;53959;53.626;11.410;2023-04-01T05:09:42;99312.31;;;5.14;86.67
5138;BME280;53959;53.626;11.410;2023-04-01T05:12:08;99319.28;;;5.16;86.60
5138;BME280;53959;53.626;11.410;2023-04-01T05:14:52;99312.38;;;5.12;86.75
5138;BME280;53959;53.626;11.410;2023-04-01T05:17:17;99319.28;;;5.15;86.57
5138;BME280;53959;53.626;11.410;2023-04-01T05:19:42;99319.28;;;5.16;86.35
5138;BME280;53959;53.626;11.410;2023-04-01T05:22:08;99321.25;;;5.08;86.82
5138;BME280;53959;53.626;11.410;2023-04-01T05:24:34;99319.50;;;5.07;87.01
5138;BME280;53959;53.626;11.410;2023-04-01T05:27:00;99325.41;;;5.15;86.85
5138;BME280;53959;53.626;11.410;2023-04-01T05:29:26;99337.97;;;5.05;86.76
5138;BME280;53959;53.626;11.410;2023-04-01T05:31:58;99331.78;;;5.06;86.94
5138;BME280;53959;53.626;11.410;2023-04-01T05:34:24;99334.47;;;5.03;87.46
5138;BME280;53959;53.626;11.410;2023-04-01T05:36:49;99336.97;;;5.09;87.15
5138;BME280;53959;53.626;11.410;2023-04-01T05:39:16;99342.28;;;5.08;86.80
5138;BME280;53959;53.626;11.410;2023-04-01T05:41:42;99346.72;;;5.06;87.19
5138;BME280;53959;53.626;11.410;2023-04-01T05:44:07;99348.56;;;5.02;86.87
5138;BME280;53959;53.626;11.410;2023-04-01T05:46:55;99351.38;;;4.95;86.42
5138;BME280;53959;53.626;11.410;2023-04-01T05:49:23;99353.94;;;4.98;85.92
5138;BME280;53959;53.626;11.410;2023-04-01T05:51:49;99354.06;;;4.93;85.94
5138;BME280;53959;53.626;11.410;2023-04-01T05:54:16;99358.34;;;4.96;85.75
5138;BME280;53959;53.626;11.410;2023-04-01T05:56:43;99362.75;;;4.95;85.63
5138;BME280;53959;53.626;11.410;2023-04-01T05:59:10;99352.41;;;4.89;86.01
5138;BME280;53959;53.626;11.410;2023-04-01T06:01:36;99368.94;;;4.93;85.85
5138;BME280;53959;53.626;11.410;2023-04-01T06:04:02;99351.44;;;4.92;86.05
5138;BME280;53959;53.626;11.410;2023-04-01T06:06:29;99366.19;;;4.99;86.53
5138;BME280;53959;53.626;11.410;2023-04-01T06:09:27;99367.22;;;4.93;86.28
5138;BME280;53959;53.626;11.410;2023-04-01T06:12:17;99376.03;;;4.91;86.17
5138;BME280;53959;53.626;11.410;2023-04-01T06:15:17;99370.09;;;4.81;86.08
5138;BME280;53959;53.626;11.410;2023-04-01T06:17:56;99382.50;;;4.76;85.78
5138;BME280;53959;53.626;11.410;2023-04-01T06:23:32;99383.34;;;4.78;86.00
5138;BME280;53959;53.626;11.410;2023-04-01T06:28:54;99389.34;;;4.83;86.25
5138;BME280;53959;53.626;11.410;2023-04-01T06:34:13;99399.94;;;4.80;85.66
5138;BME280;53959;53.626;11.410;2023-04-01T06:36:52;99411.38;;;4.79;85.91
5138;BME280;53959;53.626;11.410;2023-04-01T06:39:33;99405.94;;;4.85;85.96
5138;BME280;53959;53.626;11.410;2023-04-01T06:42:17;99405.25;;;4.77;85.82
5138;BME280;53959;53.626;11.410;2023-04-01T06:56:25;99428.94;;;4.77;85.74
5138;BME280;53959;53.626;11.410;2023-04-01T06:59:28;99427.84;;;4.87;86.10
5138;BME280;53959;53.626;11.410;2023-04-01T07:01:58;99426.25;;;4.80;85.53
5138;BME280;53959;53.626;11.410;2023-04-01T07:04:29;99436.66;;;4.86;85.73
5138;BME280;53959;53.626;11.410;2023-04-01T07:07:24;99445.34;;;4.88;85.48
5138;BME280;53959;53.626;11.410;2023-04-01T07:09:58;99447.88;;;4.93;85.70
5138;BME280;53959;53.626;11.410;2023-04-01T07:12:55;99444.44;;;4.91;85.83
5138;BME280;53959;53.626;11.410;2023-04-01T07:15:42;99445.22;;;4.94;85.58
5138;BME280;53959;53.626;11.410;2023-04-01T07:18:23;99447.88;;;4.93;85.60
5138;BME280;53959;53.626;11.410;2023-04-01T07:20:53;99453.19;;;4.91;85.35
5138;BME280;53959;53.626;11.410;2023-04-01T07:23:25;99452.22;;;4.95;85.23
5138;BME280;53959;53.626;11.410;2023-04-01T07:26:19;99466.28;;;4.94;85.56
5138;BME280;53959;53.626;11.410;2023-04-01T07:28:57;99467.34;;;4.85;85.37
5138;BME280;53959;53.626;11.410;2023-04-01T07:34:28;99472.44;;;4.93;85.44
5138;BME280;53959;53.626;11.410;2023-04-01T07:39:41;99474.94;;;4.99;85.40
5138;BME280;53959;53.626;11.410;2023-04-01T07:45:30;99485.50;;;4.98;84.80
5138;BME280;53959;53.626;11.410;2023-04-01T07:50:31;99508.31;;;4.97;84.76
5138;BME280;53959;53.626;11.410;2023-04-01T07:58:12;99517.88;;;5.00;84.71
5138;BME280;53959;53.626;11.410;2023-04-01T08:00:51;99530.75;;;5.14;85.26
5138;BME280;53959;53.626;11.410;2023-04-01T08:06:14;99525.66;;;5.06;84.89
5138;BME280;53959;53.626;11.410;2023-04-01T08:09:50;99535.38;;;5.02;84.70
5138;BME280;53959;53.626;11.410;2023-04-01T08:12:31;99537.19;;;5.00;84.68
5138;BME280;53959;53.626;11.410;2023-04-01T08:18:31;99541.66;;;4.95;85.23
5138;BME280;53959;53.626;11.410;2023-04-01T08:21:07;99546.88;;;4.98;84.94
5138;BME280;53959;53.626;11.410;2023-04-01T08:23:43;99552.09;;;5.01;84.61
5138;BME280;53959;53.626;11.410;2023-04-01T08:26:35;99552.19;;;4.97;84.30
5138;BME280;53959;53.626;11.410;2023-04-01T08:29:31;99551.28;;;4.98;83.89
5138;BME280;53959;53.626;11.410;2023-04-01T08:32:06;99559.06;;;5.02;83.81
5138;BME280;53959;53.626;11.410;2023-04-01T08:34:38;99555.53;;;5.03;84.42
5138;BME280;53959;53.626;11.410;2023-04-01T08:37:15;99567.06;;;4.98;84.63
5138;BME280;53959;53.626;11.410;2023-04-01T08:42:58;99576.59;;;5.03;85.40
5138;BME280;53959;53.626;11.410;2023-04-01T08:48:31;99577.50;;;5.02;85.77
5138;BME280;53959;53.626;11.410;2023-04-01T08:51:32;99574.84;;;5.02;85.39
5138;BME280;53959;53.626;11.410;2023-04-01T08:54:16;99581.94;;;5.00;85.03
5138;BME280;53959;53.626;11.410;2023-04-01T08:57:13;99583.66;;;5.00;85.24
5138;BME280;53959;53.626;11.410;2023-04-01T09:00:24;99578.34;;;5.04;84.62
5138;BME280;53959;53.626;11.410;2023-04-01T09:03:22;99596.94;;;4.95;84.52
5138;BME280;53959;53.626;11.410;2023-04-01T09:14:57;99604.63;;;5.06;84.52
5138;BME280;53959;53.626;11.410;2023-04-01T09:17:51;99611.69;;;5.02;84.43
5138;BME280;53959;53.626;11.410;2023-04-01T09:26:21;99631.63;;;5.14;83.82
5138;BME280;53959;53.626;11.410;2023-04-01T09:32:49;99614.00;;;5.19;84.74
5138;BME280;53959;53.626;11.410;2023-04-01T09:38:00;99642.97;;;5.18;85.04
5138;BME280;53959;53.626;11.410;2023-04-01T09:40:41;99625.72;;;5.04;84.91
5138;BME280;53959;53.626;11.410;2023-04-01T09:43:22;99638.13;;;4.96;85.00
5138;BME280;53959;53.626;11.410;2023-04-01T09:48:58;99644.03;;;5.07;85.04
5138;BME280;53959;53.626;11.410;2023-04-01T09:54:54;99656.69;;;4.90;85.12
5138;BME280;53959;53.626;11.410;2023-04-01T10:00:55;99661.13;;;4.85;85.36
5138;BME280;53959;53.626;11.410;2023-04-01T10:20:35;99689.19;;;4.86;84.77
5138;BME280;53959;53.626;11.410;2023-04-01T10:26:14;99692.88;;;4.76;84.59
5138;BME280;53959;53.626;11.410;2023-04-01T10:29:02;99702.53;;;4.74;85.17
5138;BME280;53959;53.626;11.410;2023-04-01T10:32:08;99702.69;;;4.66;84.90
5138;BME280;53959;53.626;11.410;2023-04-01T10:40:36;99699.19;;;4.66;84.88
5138;BME280;53959;53.626;11.410;2023-04-01T10:46:39;99697.56;;;4.60;85.38
5138;BME280;53959;53.626;11.410;2023-04-01T10:49:35;99713.19;;;4.68;84.80
5138;BME280;53959;53.626;11.410;2023-04-01T11:02:23;99731.44;;;4.77;83.84
5138;BME280;53959;53.626;11.410;2023-04-01T11:05:25;99739.19;;;4.86;83.56
5138;BME280;53959;53.626;11.410;2023-04-01T11:20:52;99748.38;;;4.60;84.50
5138;BME280;53959;53.626;11.410;2023-04-01T11:29:54;99762.28;;;4.69;84.11
5138;BME280;53959;53.626;11.410;2023-04-01T11:32:53;99765.88;;;4.63;84.47
5138;BME280;53959;53.626;11.410;2023-04-01T11:35:33;99767.66;;;4.61;83.57
5138;BME280;53959;53.626;11.410;2023-04-01T11:41:19;99785.97;;;4.66;84.08
5138;BME280;53959;53.626;11.410;2023-04-01T11:44:26;99789.59;;;4.60;83.97
5138;BME280;53959;53.626;11.410;2023-04-01T11:50:28;99799.38;;;4.50;84.19
5138;BME280;53959;53.626;11.410;2023-04-01T11:53:02;99786.22;;;4.50;84.13
5138;BME280;53959;53.626;11.410;2023-04-01T11:58:58;99799.41;;;4.49;83.70
5138;BME280;53959;53.626;11.410;2023-04-01T12:12:24;99817.81;;;4.47;83.23
5138;BME280;53959;53.626;11.410;2023-04-01T12:15:13;99822.28;;;4.42;83.06
5138;BME280;53959;53.626;11.410;2023-04-01T12:23:20;99836.41;;;4.35;83.47
5138;BME280;53959;53.626;11.410;2023-04-01T12:29:37;99860.25;;;4.20;83.87
5138;BME280;53959;53.626;11.410;2023-04-01T12:37:36;99852.31;;;4.26;84.07
5138;BME280;53959;53.626;11.410;2023-04-01T12:40:28;99860.03;;;4.38;83.96
5138;BME280;53959;53.626;11.410;2023-04-01T12:48:38;99867.03;;;4.37;83.75
5138;BME280;53959;53.626;11.410;2023-04-01T12:59:14;99885.41;;;4.39;84.02
5138;BME280;53959;53.626;11.410;2023-04-01T13:07:43;99901.38;;;4.24;84.06
5138;BME280;53959;53.626;11.410;2023-04-01T13:10:25;99902.31;;;4.20;83.81
5138;BME280;53959;53.626;11.410;2023-04-01T13:13:04;99910.88;;;4.37;83.67
5138;BME280;53959;53.626;11.410;2023-04-01T13:15:58;99915.28;;;4.33;83.86
5138;BME280;53959;53.626;11.410;2023-04-01T13:21:25;99924.97;;;4.30;83.79
5138;BME280;53959;53.626;11.410;2023-04-01T13:29:36;99938.13;;;4.30;82.36
5138;BME280;53959;53.626;11.410;2023-04-01T13:32:13;99941.69;;;4.24;82.97
5138;BME280;53959;53.626;11.410;2023-04-01T13:35:08;99946.16;;;4.18;82.59
5138;BME280;53959;53.626;11.410;2023-04-01T13:41:13;99954.91;;;4.17;82.82
5138;BME280;53959;53.626;11.410;2023-04-01T13:43:23;99948.06;;;4.03;82.89
5138;BME280;53959;53.626;11.410;2023-04-01T13:51:01;99963.78;;;4.05;82.07
5138;BME280;53959;53.626;11.410;2023-04-01T13:59:37;99965.59;;;3.98;82.86
5138;BME280;53959;53.626;11.410;2023-04-01T14:13:07;100000.75;;;3.86;82.04
5138;BME280;53959;53.626;11.410;2023-04-01T14:16:18;99998.97;;;3.92;81.66
5138;BME280;53959;53.626;11.410;2023-04-01T14:31:11;100027.88;;;3.90;82.33
5138;BME280;53959;53.626;11.410;2023-04-01T14:36:50;100035.78;;;3.87;82.87
5138;BME280;53959;53.626;11.410;2023-04-01T14:45:06;100039.34;;;3.81;82.68
5138;BME280;53959;53.626;11.410;2023-04-01T14:47:43;100041.13;;;3.78;82.85
5138;BME280;53959;53.626;11.410;2023-04-01T14:50:13;100039.41;;;3.71;82.97
5138;BME280;53959;53.626;11.410;2023-04-01T14:52:46;100055.16;;;3.77;82.54
5138;BME280;53959;53.626;11.410;2023-04-01T14:55:44;100049.97;;;3.64;82.19
5138;BME280;53959;53.626;11.410;2023-04-01T14:58:16;100052.59;;;3.66;82.47
5138;BME280;53959;53.626;11.410;2023-04-01T15:04:08;100070.13;;;3.62;82.96
5138;BME280;53959;53.626;11.410;2023-04-01T15:12:15;100082.41;;;3.59;82.39
5138;BME280;53959;53.626;11.410;2023-04-01T15:18:07;100098.16;;;3.59;81.66
5138;BME280;53959;53.626;11.410;2023-04-01T15:20:53;100098.16;;;3.62;81.14
5138;BME280;53959;53.626;11.410;2023-04-01T15:26:12;100106.00;;;3.63;80.83
5138;BME280;53959;53.626;11.410;2023-04-01T15:29:12;100109.47;;;3.67;81.20
5138;BME280;53959;53.626;11.410;2023-04-01T15:32:04;100105.16;;;3.57;81.71
5138;BME280;53959;53.626;11.410;2023-04-01T15:34:59;100119.16;;;3.62;81.61
5138;BME280;53959;53.626;11.410;2023-04-01T15:37:49;100131.44;;;3.58;80.66
5138;BME280;53959;53.626;11.410;2023-04-01T15:40:32;100126.22;;;3.54;80.54
5138;BME280;53959;53.626;11.410;2023-04-01T15:55:04;100144.53;;;3.57;80.76
5138;BME280;53959;53.626;11.410;2023-04-01T15:58:20;100147.19;;;3.58;80.33
5138;BME280;53959;53.626;11.410;2023-04-01T16:04:16;100162.94;;;3.57;79.46
5138;BME280;53959;53.626;11.410;2023-04-01T16:09:59;100181.31;;;3.55;80.74
5138;BME280;53959;53.626;11.410;2023-04-01T16:12:53;100168.25;;;3.48;80.33
5138;BME280;53959;53.626;11.410;2023-04-01T16:15:37;100190.13;;;3.45;80.86
5138;BME280;53959;53.626;11.410;2023-04-01T16:21:11;100173.50;;;3.43;79.71
5138;BME280;53959;53.626;11.410;2023-04-01T16:23:57;100184.88;;;3.42;80.09
5138;BME280;53959;53.626;11.410;2023-04-01T16:26:29;100198.03;;;3.40;79.88
5138;BME280;53959;53.626;11.410;2023-04-01T16:31:46;100207.66;;;3.40;79.97
5138;BME280;53959;53.626;11.410;2023-04-01T16:34:28;100215.53;;;3.37;79.60
5138;BME280;53959;53.626;11.410;2023-04-01T16:37:11;100209.41;;;3.38;79.36
5138;BME280;53959;53.626;11.410;2023-04-01T16:39:47;100219.03;;;3.34;79.00
5138;BME280;53959;53.626;11.410;2023-04-01T16:42:43;100241.81;;;3.32;79.15
5138;BME280;53959;53.626;11.410;2023-04-01T16:47:51;100220.81;;;3.28;78.56
5138;BME280;53959;53.626;11.410;2023-04-01T16:50:22;100216.47;;;3.24;78.21
5138;BME280;53959;53.626;11.410;2023-04-01T16:53:09;100240.94;;;3.29;77.86
5138;BME280;53959;53.626;11.410;2023-04-01T16:55:53;100253.19;;;3.31;78.07
5138;BME280;53959;53.626;11.410;2023-04-01T17:01:04;100267.19;;;3.26;78.49
5138;BME280;53959;53.626;11.410;2023-04-01T17:03:40;100261.94;;;3.27;78.61
5138;BME280;53959;53.626;11.410;2023-04-01T17:11:54;100294.34;;;3.17;77.89
5138;BME280;53959;53.626;11.410;2023-04-01T17:14:33;100299.59;;;3.17;78.61
5138;BME280;53959;53.626;11.410;2023-04-01T17:25:59;100310.09;;;3.06;77.87
5138;BME280;53959;53.626;11.410;2023-04-01T17:28:42;100330.19;;;3.10;78.05
5138;BME280;53959;53.626;11.410;2023-04-01T17:33:59;100334.59;;;3.16;78.34
5138;BME280;53959;53.626;11.410;2023-04-01T17:36:45;100340.69;;;3.16;77.66
5138;BME280;53959;53.626;11.410;2023-04-01T17:39:41;100345.94;;;3.10;77.09
5138;BME280;53959;53.626;11.410;2023-04-01T17:42:18;100369.53;;;3.04;76.70
5138;BME280;53959;53.626;11.410;2023-04-01T17:45:07;100358.19;;;2.99;77.39
5138;BME280;53959;53.626;11.410;2023-04-01T17:48:16;100368.69;;;2.99;76.87
5138;BME280;53959;53.626;11.410;2023-04-01T17:53:23;100362.56;;;2.97;75.53
5138;BME280;53959;53.626;11.410;2023-04-01T17:56:14;100391.44;;;2.97;76.39
5138;BME280;53959;53.626;11.410;2023-04-01T18:04:47;100398.41;;;2.95;75.02
5138;BME280;53959;53.626;11.410;2023-04-01T18:07:29;100401.03;;;2.89;75.33
5138;BME280;53959;53.626;11.410;2023-04-01T18:10:11;100415.91;;;2.87;75.06
5138;BME280;53959;53.626;11.410;2023-04-01T18:27:00;100453.50;;;2.83;73.87
5138;BME280;53959;53.626;11.410;2023-04-01T18:29:35;100469.25;;;2.98;74.29
5138;BME280;53959;53.626;11.410;2023-04-01T18:32:15;100477.94;;;2.80;72.99
5138;BME280;53959;53.626;11.410;2023-04-01T18:37:34;100484.09;;;2.88;72.66
5138;BME280;53959;53.626;11.410;2023-04-01T18:40:32;100484.06;;;2.75;73.56
5138;BME280;53959;53.626;11.410;2023-04-01T18:45:54;100505.03;;;2.73;73.06
5138;BME280;53959;53.626;11.410;2023-04-01T18:49:05;100496.25;;;2.65;72.69
5138;BME280;53959;53.626;11.410;2023-04-01T18:51:36;100503.25;;;2.71;72.98
5138;BME280;53959;53.626;11.410;2023-04-01T18:54:21;100528.63;;;2.70;72.43
5138;BME280;53959;53.626;11.410;2023-04-01T18:56:49;100503.22;;;2.63;72.06
5138;BME280;53959;53.626;11.410;2023-04-01T18:59:55;100506.72;;;2.57;71.16
5138;BME280;53959;53.626;11.410;2023-04-01T19:02:36;100531.19;;;2.62;70.79
5138;BME280;53959;53.626;11.410;2023-04-01T19:05:14;100536.44;;;2.56;71.04
5138;BME280;53959;53.626;11.410;2023-04-01T19:13:10;100558.31;;;2.61;72.04
5138;BME280;53959;53.626;11.410;2023-04-01T19:15:48;100554.81;;;2.65;72.05
5138;BME280;53959;53.626;11.410;2023-04-01T19:21:28;100570.50;;;2.53;71.06
5138;BME280;53959;53.626;11.410;2023-04-01T19:24:16;100583.63;;;2.56;71.51
5138;BME280;53959;53.626;11.410;2023-04-01T19:27:06;100587.09;;;2.54;70.69
5138;BME280;53959;53.626;11.410;2023-04-01T19:29:50;100585.38;;;2.56;71.18
5138;BME280;53959;53.626;11.410;2023-04-01T19:35:18;100587.09;;;2.55;70.43
5138;BME280;53959;53.626;11.410;2023-04-01T19:37:50;100582.72;;;2.50;69.70
5138;BME280;53959;53.626;11.410;2023-04-01T19:40:37;100594.94;;;2.45;69.59
5138;BME280;53959;53.626;11.410;2023-04-01T19:43:32;100608.94;;;2.50;69.73
5138;BME280;53959;53.626;11.410;2023-04-01T19:46:23;100600.06;;;2.32;69.85
5138;BME280;53959;53.626;11.410;2023-04-01T19:51:33;100621.81;;;2.21;69.25
5138;BME280;53959;53.626;11.410;2023-04-01T19:54:16;100627.94;;;2.19;69.20
5138;BME280;53959;53.626;11.410;2023-04-01T20:02:33;100648.84;;;2.12;69.61
5138;BME280;53959;53.626;11.410;2023-04-01T20:05:19;100640.09;;;2.10;70.21
5138;BME280;53959;53.626;11.410;2023-04-01T20:07:52;100647.94;;;2.10;69.95
5138;BME280;53959;53.626;11.410;2023-04-01T20:10:56;100664.50;;;2.04;69.82